Have a Safe July 4th! 

Flight Track Log - Related Links

Times and Time Zones

All times are in EDT time to prevent confusion due to time zone crossing. See the ADR727 flight status page for this flight to view local times or setup timezone preferences in your user account.

Time Position Orientation Groundspeed Altitude Reporting Facility
EDT Latitude Longitude Course Direction KTS MPH feet Rate Location/Type
Thu 11:14:00 PM 42.1516 18.9828 324° Northwest  Level Estimated
Thu 11:15:00 PM 42.2331 18.8998 323° Northwest  Level Estimated
Thu 11:16:00 PM 42.3146 18.8166 323° Northwest  Level Estimated
Thu 11:17:00 PM 42.3961 18.7331 323° Northwest  Level Estimated
Thu 11:18:00 PM 42.4775 18.6494 323° Northwest  Level Estimated
Thu 11:19:00 PM 42.5588 18.5655 323° Northwest  Level Estimated
Thu 11:20:00 PM 42.6401 18.4814 323° Northwest  Level Estimated
Thu 11:21:00 PM 42.7213 18.3971 323° Northwest  Level Estimated
Thu 11:22:00 PM 42.8024 18.3125 323° Northwest  Level Estimated
Thu 11:23:00 PM 42.8835 18.2278 323° Northwest  Level Estimated
Thu 11:24:00 PM 42.9646 18.1428 322° Northwest  Level Estimated
Thu 11:25:00 PM 43.0455 18.0576 322° Northwest  Level Estimated
Thu 11:26:00 PM 43.1264 17.9721 322° Northwest  Level Estimated
Thu 11:27:00 PM 43.2072 17.8864 322° Northwest  Level Estimated
Thu 11:28:00 PM 43.2880 17.8006 322° Northwest  Level Estimated
Thu 11:29:00 PM 43.3687 17.7144 322° Northwest  Level Estimated
Thu 11:30:00 PM 43.4493 17.6281 322° Northwest  Level Estimated
Thu 11:31:00 PM 43.5299 17.5415 322° Northwest  Level Estimated
Thu 11:32:00 PM 43.6104 17.4547 322° Northwest  Level Estimated
Thu 11:33:00 PM 43.6909 17.3676 322° Northwest  Level Estimated
Thu 11:34:00 PM 43.7713 17.2803 322° Northwest  Level Estimated
Thu 11:35:00 PM 43.8516 17.1928 322° Northwest  Level Estimated
Thu 11:36:00 PM 43.9318 17.1050 322° Northwest  Level Estimated
Thu 11:37:00 PM 44.0120 17.0170 322° Northwest  Level Estimated
Thu 11:38:00 PM 44.0921 16.9288 322° Northwest  Level Estimated
Thu 11:39:00 PM 44.1721 16.8403 322° Northwest  Level Estimated
Thu 11:40:00 PM 44.2521 16.7516 322° Northwest  Level Estimated
Thu 11:41:00 PM 44.3320 16.6627 321° Northwest  Level Estimated
Thu 11:42:00 PM 44.4118 16.5735 321° Northwest  Level Estimated
Thu 11:43:00 PM 44.4916 16.4841 321° Northwest  Level Estimated
Thu 11:44:00 PM 44.5713 16.3944 321° Northwest  Level Estimated
Thu 11:45:00 PM 44.6509 16.3044 321° Northwest  Level Estimated
Thu 11:46:00 PM 44.7304 16.2143 321° Northwest  Level Estimated
Thu 11:47:00 PM 44.8099 16.1238 321° Northwest  Level Estimated
Thu 11:48:00 PM 44.8893 16.0332 321° Northwest  Level Estimated
Thu 11:49:00 PM 44.9687 15.9423 321° Northwest  Level Estimated
Thu 11:50:00 PM 45.0479 15.8511 321° Northwest  Level Estimated
Thu 11:51:00 PM 45.1271 15.7596 321° Northwest  Level Estimated
Thu 11:52:00 PM 45.2062 15.6680 321° Northwest  Level Estimated
Thu 11:53:00 PM 45.2853 15.5760 321° Northwest  Level Estimated
Thu 11:54:00 PM 45.3643 15.4838 321° Northwest  Level Estimated
Thu 11:55:00 PM 45.4432 15.3914 321° Northwest  Level Estimated
Thu 11:56:00 PM 45.5220 15.2987 321° Northwest  Level Estimated
Thu 11:57:00 PM 45.6007 15.2057 320° Northwest  Level Estimated
Thu 11:58:00 PM 45.6794 15.1125 320° Northwest  Level Estimated
Thu 11:59:00 PM 45.7580 15.0190 320° Northwest  Level Estimated
Fri 12:00:00 AM 45.8365 14.9252 320° Northwest  Level Estimated
Fri 12:01:00 AM 45.9150 14.8312 320° Northwest  Level Estimated
Fri 12:02:00 AM 45.9933 14.7369 320° Northwest  Level Estimated
Fri 12:03:00 AM 46.0716 14.6423 320° Northwest  Level Estimated
Fri 12:04:00 AM 46.1498 14.5475 320° Northwest  Level Estimated
Fri 12:05:00 AM 46.2237 14.4576 320° Northwest  Level Estimated
Fri 12:06:00 AM 46.2237 14.4576 North  Level Estimated
Fri 12:07:00 AM 46.2237 14.4576 North  Level Estimated
Fri 12:08:00 AM 46.2237 14.4576 North  Level Estimated
Fri 12:09:00 AM 46.2237 14.4576 North  Level Estimated
Fri 12:10:00 AM 46.2237 14.4576 North  Level Estimated
Fri 12:11:00 AM 46.2237 14.4576 North  Level Estimated
Fri 12:12:00 AM 46.2237 14.4576 North  Level Estimated
Fri 12:13:00 AM 46.2237 14.4576 North  Level Estimated

Login

Don't have an account? Register now (free) for customized features, flight alerts, and more!